createdAt,value
2019-06-26T00:01:06.796Z,29.32
2019-06-26T00:03:37.010Z,29.26
2019-06-26T00:06:07.376Z,29.23
2019-06-26T00:08:37.618Z,29.15
2019-06-26T00:11:08.188Z,29.14
2019-06-26T00:13:38.366Z,29.08
2019-06-26T00:16:08.854Z,29.02
2019-06-26T00:18:39.045Z,28.99
2019-06-26T00:21:09.303Z,29.00
2019-06-26T00:23:39.490Z,28.98
2019-06-26T00:26:09.696Z,28.92
2019-06-26T00:28:40.235Z,28.91
2019-06-26T00:31:10.508Z,28.87
2019-06-26T00:33:40.688Z,28.84
2019-06-26T00:36:11.271Z,28.86
2019-06-26T00:38:41.474Z,28.81
2019-06-26T00:41:11.656Z,28.80
2019-06-26T00:43:42.906Z,28.77
2019-06-26T00:46:13.263Z,28.71
2019-06-26T00:48:43.463Z,28.65
2019-06-26T00:51:13.673Z,28.62
2019-06-26T00:53:44.172Z,28.68
2019-06-26T00:56:17.343Z,28.63
2019-06-26T00:58:47.515Z,28.54
2019-06-26T01:01:17.727Z,28.49
2019-06-26T01:03:49.583Z,28.46
2019-06-26T01:06:37.634Z,28.45
2019-06-26T01:09:07.995Z,28.42
2019-06-26T01:11:38.305Z,28.38
2019-06-26T01:14:08.671Z,28.36
2019-06-26T01:16:38.399Z,28.35
2019-06-26T01:19:08.567Z,28.38
2019-06-26T01:21:38.841Z,28.37
2019-06-26T01:24:08.568Z,28.39
2019-06-26T01:26:38.759Z,28.40
2019-06-26T01:29:08.512Z,28.38
2019-06-26T01:31:38.863Z,28.29
2019-06-26T01:34:09.031Z,28.21
2019-06-26T01:36:39.249Z,28.17
2019-06-26T01:39:09.483Z,28.12
2019-06-26T01:41:39.815Z,28.11
2019-06-26T01:44:14.750Z,28.08
2019-06-26T01:46:41.532Z,28.11
2019-06-26T01:49:11.788Z,28.09
2019-06-26T01:51:42.962Z,28.10
2019-06-26T01:54:12.645Z,28.10
2019-06-26T01:56:42.298Z,28.12
2019-06-26T01:59:12.069Z,28.08
2019-06-26T02:01:41.705Z,28.09
2019-06-26T02:04:11.388Z,28.05
2019-06-26T02:06:41.022Z,28.07
2019-06-26T02:09:11.276Z,28.06
2019-06-26T02:11:40.924Z,28.08
2019-06-26T02:14:11.121Z,28.07
2019-06-26T02:16:41.420Z,28.03
2019-06-26T02:19:13.626Z,28.03
2019-06-26T02:21:45.744Z,28.00
2019-06-26T02:24:15.951Z,28.00
2019-06-26T02:26:47.137Z,27.97
2019-06-26T02:29:17.319Z,27.96
2019-06-26T02:31:47.584Z,27.96
2019-06-26T02:34:17.923Z,27.97
2019-06-26T02:36:47.533Z,27.93
2019-06-26T02:39:17.201Z,27.86
2019-06-26T02:41:46.980Z,27.83
2019-06-26T02:44:16.630Z,27.77
2019-06-26T02:46:46.260Z,27.69
2019-06-26T02:49:16.511Z,27.69
2019-06-26T02:51:46.684Z,27.64
2019-06-26T02:54:16.921Z,27.57
2019-06-26T02:56:47.109Z,27.57
2019-06-26T02:59:17.775Z,27.57
2019-06-26T03:01:47.472Z,27.53
2019-06-26T03:04:17.215Z,27.52
2019-06-26T03:06:48.377Z,27.51
2019-06-26T03:09:18.840Z,27.43
2019-06-26T03:11:48.469Z,27.39
2019-06-26T03:14:18.107Z,27.33
2019-06-26T03:16:48.304Z,27.27
2019-06-26T03:19:18.010Z,27.26
2019-06-26T03:21:47.649Z,27.17
2019-06-26T03:24:17.298Z,27.05
2019-06-26T03:26:46.967Z,27.04
2019-06-26T03:29:16.668Z,26.99
2019-06-26T03:31:46.346Z,26.97
2019-06-26T03:34:16.073Z,26.90
2019-06-26T03:36:45.805Z,26.85
2019-06-26T03:39:15.427Z,26.77
2019-06-26T03:41:45.107Z,26.73
2019-06-26T03:44:14.820Z,26.77
2019-06-26T03:46:44.626Z,26.79
2019-06-26T03:49:14.269Z,26.75
2019-06-26T03:51:43.878Z,26.77
2019-06-26T03:54:13.521Z,26.75
2019-06-26T03:56:43.341Z,26.72
2019-06-26T03:59:12.963Z,26.69
2019-06-26T04:01:43.166Z,26.71
2019-06-26T04:04:12.880Z,26.72
2019-06-26T04:06:42.650Z,26.68
2019-06-26T04:09:12.352Z,26.70
2019-06-26T04:11:43.472Z,26.62
2019-06-26T04:14:13.201Z,26.64
2019-06-26T04:16:44.492Z,26.64
2019-06-26T04:19:14.250Z,26.65
2019-06-26T04:21:43.859Z,26.65
2019-06-26T04:24:13.573Z,26.71
2019-06-26T04:26:43.334Z,26.76
2019-06-26T04:29:13.059Z,26.79
2019-06-26T04:31:42.693Z,26.82
2019-06-26T04:34:12.415Z,26.89
2019-06-26T04:36:42.679Z,26.90
2019-06-26T04:39:12.648Z,26.94
2019-06-26T04:41:42.680Z,26.80
2019-06-26T04:44:12.486Z,26.73
2019-06-26T04:46:42.734Z,26.81
2019-06-26T04:49:18.066Z,26.83
2019-06-26T04:51:48.656Z,26.90
2019-06-26T04:54:18.297Z,26.94
2019-06-26T04:56:48.024Z,26.98
2019-06-26T04:59:17.667Z,26.96
2019-06-26T05:01:47.353Z,26.99
2019-06-26T05:04:17.667Z,27.01
2019-06-26T05:06:47.287Z,27.03
2019-06-26T05:09:17.124Z,27.04
2019-06-26T05:11:46.951Z,27.03
2019-06-26T05:14:16.590Z,27.03
2019-06-26T05:16:47.960Z,27.05
2019-06-26T05:19:19.530Z,27.05
2019-06-26T05:21:49.268Z,27.02
2019-06-26T05:24:18.950Z,27.03
2019-06-26T05:26:48.662Z,27.06
2019-06-26T05:29:18.366Z,27.04
2019-06-26T05:31:48.157Z,27.06
2019-06-26T05:34:17.782Z,26.99
2019-06-26T05:36:47.700Z,26.96
2019-06-26T05:39:17.424Z,27.03
2019-06-26T05:41:47.059Z,27.00
2019-06-26T05:44:16.735Z,27.06
2019-06-26T05:46:46.483Z,26.96
2019-06-26T05:49:16.181Z,26.91
2019-06-26T05:51:45.910Z,26.99
2019-06-26T05:54:15.548Z,27.01
2019-06-26T05:56:45.795Z,26.92
2019-06-26T05:59:15.652Z,26.88
2019-06-26T06:01:45.287Z,26.78
2019-06-26T06:04:14.889Z,26.80
2019-06-26T06:06:44.707Z,26.87
2019-06-26T06:09:14.348Z,26.95
2019-06-26T06:15:27.013Z,27.27
2019-06-26T06:17:56.633Z,27.46
2019-06-26T06:20:38.965Z,27.30
2019-06-26T06:23:08.863Z,27.40
2019-06-26T06:25:38.556Z,27.48
2019-06-26T06:28:08.263Z,27.69
2019-06-26T06:30:37.945Z,27.69
2019-06-26T06:33:07.641Z,27.71
2019-06-26T06:35:37.361Z,27.84
2019-06-26T06:38:07.232Z,28.12
2019-06-26T06:40:37.445Z,28.44
2019-06-26T06:43:08.165Z,28.71
2019-06-26T06:45:38.137Z,28.94
2019-06-26T06:48:08.636Z,29.16
2019-06-26T06:50:38.899Z,29.20
2019-06-26T06:53:09.097Z,29.16
2019-06-26T06:55:39.445Z,29.30
2019-06-26T06:58:09.816Z,29.48
2019-06-26T07:00:40.030Z,29.45
2019-06-26T07:03:09.674Z,29.35
2019-06-26T07:05:39.862Z,29.39
2019-06-26T07:08:11.356Z,29.60
2019-06-26T07:10:42.267Z,29.72
2019-06-26T07:13:12.552Z,29.84
2019-06-26T07:15:43.002Z,30.06
2019-06-26T07:18:13.270Z,29.97
2019-06-26T07:20:44.728Z,30.06
2019-06-26T07:23:15.428Z,30.09
2019-06-26T07:25:45.637Z,30.03
2019-06-26T07:28:16.928Z,29.66
2019-06-26T07:30:47.141Z,29.45
2019-06-26T07:33:17.456Z,29.34
2019-06-26T07:35:47.699Z,29.31
2019-06-26T07:38:18.332Z,29.21
2019-06-26T07:40:48.594Z,29.14
2019-06-26T07:43:18.868Z,29.22
2019-06-26T07:45:49.165Z,29.47
2019-06-26T07:48:19.699Z,29.66
2019-06-26T07:50:49.342Z,29.64
2019-06-26T07:53:19.963Z,29.73
2019-06-26T07:55:50.228Z,30.01
2019-06-26T07:58:20.621Z,30.04
2019-06-26T08:00:51.810Z,30.14
2019-06-26T08:03:22.148Z,30.17
2019-06-26T08:05:52.479Z,30.18
2019-06-26T08:08:22.677Z,30.25
2019-06-26T08:10:52.942Z,30.14
2019-06-26T08:13:23.215Z,30.04
2019-06-26T08:15:53.475Z,30.21
2019-06-26T08:18:23.815Z,30.24
2019-06-26T08:21:11.085Z,30.32
2019-06-26T08:23:26.189Z,30.42
2019-06-26T08:25:56.757Z,30.66
2019-06-26T08:28:27.155Z,30.55
2019-06-26T08:30:57.511Z,30.62
2019-06-26T08:33:28.035Z,30.63
2019-06-26T08:35:58.824Z,30.70
2019-06-26T08:38:29.246Z,30.62
2019-06-26T08:40:59.440Z,30.74
2019-06-26T08:43:31.444Z,30.92
2019-06-26T08:46:03.702Z,30.95
2019-06-26T08:48:39.665Z,31.02
2019-06-26T08:51:06.151Z,31.04
2019-06-26T08:53:36.865Z,31.07
2019-06-26T08:56:07.233Z,30.95
2019-06-26T08:58:37.487Z,30.79
2019-06-26T09:01:07.799Z,30.64
2019-06-26T09:03:41.883Z,30.61
2019-06-26T09:06:10.009Z,30.65
2019-06-26T09:08:40.350Z,30.82
2019-06-26T09:11:10.622Z,30.95
2019-06-26T09:13:40.874Z,31.04
2019-06-26T09:16:11.215Z,31.17
2019-06-26T09:18:41.763Z,31.26
2019-06-26T09:21:12.056Z,31.39
2019-06-26T09:23:42.280Z,31.49
2019-06-26T09:26:18.520Z,31.50
2019-06-26T09:28:48.745Z,31.54
2019-06-26T09:31:20.140Z,31.69
2019-06-26T09:34:10.943Z,31.82
2019-06-26T09:36:35.272Z,31.94
2019-06-26T09:39:08.656Z,31.83
2019-06-26T09:41:39.027Z,31.63
2019-06-26T09:44:11.767Z,31.82
2019-06-26T09:46:42.089Z,32.04
2019-06-26T09:49:12.320Z,31.97
2019-06-26T09:51:42.733Z,32.00
2019-06-26T09:54:13.082Z,32.04
2019-06-26T09:56:45.904Z,31.97
2019-06-26T09:59:16.268Z,31.66
2019-06-26T10:01:46.671Z,31.58
2019-06-26T10:04:16.893Z,31.63
2019-06-26T10:06:47.405Z,31.69
2019-06-26T10:09:18.015Z,31.47
2019-06-26T10:11:48.492Z,31.41
2019-06-26T10:14:18.762Z,31.28
2019-06-26T10:16:50.562Z,31.32
2019-06-26T10:19:20.878Z,31.40
2019-06-26T10:21:52.271Z,31.51
2019-06-26T10:24:22.504Z,31.28
2019-06-26T10:26:52.777Z,31.33
2019-06-26T10:29:23.071Z,31.26
2019-06-26T10:31:53.343Z,31.24
2019-06-26T10:34:23.569Z,31.16
2019-06-26T10:36:53.817Z,31.28
2019-06-26T10:39:24.066Z,31.45
2019-06-26T10:41:55.185Z,31.56
2019-06-26T10:44:26.737Z,31.61
2019-06-26T10:46:57.008Z,31.57
2019-06-26T10:49:27.881Z,31.52
2019-06-26T10:52:00.675Z,31.50
2019-06-26T10:54:30.917Z,31.71
2019-06-26T10:57:03.770Z,31.87
2019-06-26T10:59:34.013Z,31.77
2019-06-26T11:02:04.474Z,31.61
2019-06-26T11:04:36.239Z,31.64
2019-06-26T11:07:06.581Z,31.74
2019-06-26T11:09:36.855Z,31.62
2019-06-26T11:12:07.162Z,31.55
2019-06-26T11:14:37.400Z,31.38
2019-06-26T11:17:07.653Z,31.29
2019-06-26T11:19:43.854Z,31.38
2019-06-26T11:22:10.505Z,31.40
2019-06-26T11:24:40.886Z,31.47
2019-06-26T11:27:11.193Z,31.68
2019-06-26T11:29:41.458Z,31.84
2019-06-26T11:32:11.718Z,31.74
2019-06-26T11:34:42.098Z,31.39
2019-06-26T11:37:12.328Z,31.17
2019-06-26T11:39:42.616Z,31.21
2019-06-26T11:42:12.889Z,31.42
2019-06-26T11:44:43.219Z,31.63
2019-06-26T11:47:13.486Z,31.64
2019-06-26T11:49:59.079Z,31.53
2019-06-26T11:52:15.815Z,31.31
2019-06-26T11:55:01.359Z,31.17
2019-06-26T11:57:19.975Z,31.22
2019-06-26T11:59:50.408Z,31.23
2019-06-26T12:02:23.693Z,31.42
2019-06-26T12:04:54.067Z,31.39
2019-06-26T12:07:26.504Z,31.32
2019-06-26T12:10:09.969Z,31.33
2019-06-26T12:12:41.398Z,31.57
2019-06-26T12:15:16.226Z,31.66
2019-06-26T12:17:46.599Z,31.80
2019-06-26T12:20:22.980Z,31.83
2019-06-26T12:22:53.180Z,31.87
2019-06-26T12:25:24.933Z,31.86
2019-06-26T12:27:56.120Z,31.83
2019-06-26T12:30:26.565Z,31.85
2019-06-26T12:33:02.765Z,31.84
2019-06-26T12:35:28.831Z,31.65
2019-06-26T12:37:59.590Z,31.56
2019-06-26T12:40:31.248Z,31.56
2019-06-26T12:43:02.251Z,31.62
2019-06-26T12:45:32.718Z,31.61
2019-06-26T12:48:03.059Z,31.27
2019-06-26T12:50:36.011Z,31.17
2019-06-26T12:53:05.647Z,31.27
2019-06-26T12:55:37.107Z,31.26
2019-06-26T12:58:13.930Z,31.13
2019-06-26T13:00:39.732Z,31.24
2019-06-26T13:03:09.984Z,31.31
2019-06-26T13:05:40.204Z,31.40
2019-06-26T13:08:10.522Z,31.19
2019-06-26T13:10:49.860Z,31.23
2019-06-26T13:13:14.800Z,31.21
2019-06-26T13:15:45.077Z,31.34
2019-06-26T13:18:17.415Z,31.43
2019-06-26T13:20:57.803Z,31.62
2019-06-26T13:23:29.311Z,31.48
2019-06-26T13:25:59.544Z,31.43
2019-06-26T13:28:29.923Z,31.51
2019-06-26T13:31:01.141Z,31.32
2019-06-26T13:33:33.545Z,31.12
2019-06-26T13:36:03.776Z,31.19
2019-06-26T13:38:34.220Z,31.15
2019-06-26T13:41:04.600Z,31.25
2019-06-26T13:43:34.905Z,31.43
2019-06-26T13:46:05.197Z,31.19
2019-06-26T13:48:35.558Z,31.06
2019-06-26T13:51:10.200Z,31.03
2019-06-26T13:53:40.539Z,30.94
2019-06-26T13:56:16.795Z,30.93
2019-06-26T13:58:50.111Z,31.00
2019-06-26T14:01:26.277Z,30.95
2019-06-26T14:03:58.621Z,30.78
2019-06-26T14:06:28.999Z,30.99
2019-06-26T14:08:59.314Z,30.99
2019-06-26T14:11:30.538Z,30.85
2019-06-26T14:14:02.712Z,30.90
2019-06-26T14:16:32.934Z,30.91
2019-06-26T14:19:03.290Z,30.79
2019-06-26T14:21:33.561Z,30.75
2019-06-26T14:24:04.933Z,30.79
2019-06-26T14:26:37.126Z,30.88
2019-06-26T14:29:20.445Z,30.80
2019-06-26T14:31:40.583Z,30.98
2019-06-26T14:34:10.821Z,31.05
2019-06-26T14:36:41.258Z,31.00
2019-06-26T14:39:11.710Z,30.96
2019-06-26T14:41:43.958Z,30.83
2019-06-26T14:44:15.231Z,30.86
2019-06-26T14:46:45.549Z,30.83
2019-06-26T14:49:15.897Z,30.80
2019-06-26T14:51:47.672Z,30.83
2019-06-26T14:54:20.280Z,30.79
2019-06-26T14:56:51.131Z,30.82
2019-06-26T14:59:23.636Z,30.79
2019-06-26T15:01:53.912Z,30.76
2019-06-26T15:04:24.154Z,30.68
2019-06-26T15:07:00.451Z,30.66
2019-06-26T15:09:30.716Z,30.61
2019-06-26T15:12:02.969Z,30.53
2019-06-26T15:14:34.304Z,30.58
2019-06-26T15:17:04.546Z,30.73
2019-06-26T15:19:34.844Z,30.77
2019-06-26T15:22:05.191Z,30.61
2019-06-26T15:24:37.528Z,30.71
2019-06-26T15:27:08.705Z,30.86
2019-06-26T15:29:38.887Z,30.88
2019-06-26T15:32:09.583Z,30.90
2019-06-26T15:34:39.783Z,30.96
2019-06-26T15:37:17.219Z,30.99
2019-06-26T15:39:47.436Z,30.93
2019-06-26T15:42:20.998Z,30.96
2019-06-26T15:44:54.447Z,31.00
2019-06-26T15:47:24.730Z,30.95
2019-06-26T15:49:58.119Z,31.07
2019-06-26T15:52:31.502Z,31.03
2019-06-26T15:55:00.552Z,31.14
2019-06-26T15:57:34.643Z,31.17
2019-06-26T16:00:12.514Z,31.16
2019-06-26T16:02:44.798Z,31.18
2019-06-26T16:05:15.278Z,31.04
2019-06-26T16:07:49.950Z,31.10
2019-06-26T16:10:20.967Z,31.12
2019-06-26T16:12:51.145Z,30.93
2019-06-26T16:15:22.516Z,31.00
2019-06-26T16:18:07.401Z,31.16
2019-06-26T16:20:38.659Z,31.21
2019-06-26T16:23:09.005Z,31.22
2019-06-26T16:26:00.561Z,31.20
2019-06-26T16:28:36.631Z,31.17
2019-06-26T16:31:07.553Z,31.00
2019-06-26T16:33:39.810Z,30.93
2019-06-26T16:36:33.376Z,30.75
2019-06-26T16:39:04.046Z,30.61
2019-06-26T16:41:34.307Z,30.63
2019-06-26T16:44:05.598Z,30.63
2019-06-26T16:46:35.877Z,30.59
2019-06-26T16:49:06.423Z,30.38
2019-06-26T16:51:36.726Z,30.48
2019-06-26T16:54:17.776Z,30.61
2019-06-26T16:56:54.780Z,30.67
2019-06-26T16:59:36.108Z,30.66
2019-06-26T17:02:24.792Z,30.63
2019-06-26T17:04:56.922Z,30.57
2019-06-26T17:07:38.331Z,30.38
2019-06-26T17:10:24.645Z,30.24
2019-06-26T17:12:56.580Z,29.95
2019-06-26T17:15:27.020Z,29.76
2019-06-26T17:17:57.875Z,29.65
2019-06-26T17:20:28.326Z,29.63
2019-06-26T17:23:05.646Z,29.52
2019-06-26T17:25:30.454Z,29.40
2019-06-26T17:28:01.127Z,29.07
2019-06-26T17:30:30.781Z,29.04
2019-06-26T17:33:01.109Z,29.07
2019-06-26T17:35:31.309Z,29.14
2019-06-26T17:38:01.113Z,28.75
2019-06-26T17:40:32.415Z,28.62
2019-06-26T17:43:12.509Z,28.60
2019-06-26T17:45:36.176Z,28.54
2019-06-26T17:48:06.518Z,28.57
2019-06-26T17:50:36.800Z,28.57
2019-06-26T17:53:21.196Z,28.50
2019-06-26T17:55:40.336Z,28.48
2019-06-26T17:58:10.791Z,28.42
2019-06-26T18:00:43.015Z,28.30
2019-06-26T18:03:13.916Z,27.98
2019-06-26T18:05:44.339Z,27.85
2019-06-26T18:08:14.041Z,27.80
2019-06-26T18:10:44.293Z,27.76
2019-06-26T18:13:16.031Z,27.72
2019-06-26T18:15:48.705Z,27.69
2019-06-26T18:18:18.514Z,27.70
2019-06-26T18:20:51.193Z,27.69
2019-06-26T18:23:36.466Z,27.67
2019-06-26T18:26:11.545Z,27.57
2019-06-26T18:28:25.774Z,27.32
2019-06-26T18:30:55.660Z,27.24
2019-06-26T18:33:25.439Z,27.20
2019-06-26T18:35:56.201Z,27.15
2019-06-26T18:38:27.915Z,27.20
2019-06-26T18:40:57.625Z,27.00
2019-06-26T18:43:27.677Z,26.96
2019-06-26T18:46:00.632Z,27.05
2019-06-26T18:48:34.647Z,26.95
2019-06-26T18:51:06.772Z,26.91
2019-06-26T18:53:49.728Z,26.86
2019-06-26T18:56:09.087Z,26.72
2019-06-26T18:58:38.802Z,26.74
2019-06-26T19:01:09.686Z,26.45
2019-06-26T19:03:40.438Z,26.25
2019-06-26T19:06:16.479Z,26.29
2019-06-26T19:08:46.181Z,26.27
2019-06-26T19:11:21.673Z,26.23
2019-06-26T19:13:53.362Z,26.19
2019-06-26T19:16:25.939Z,26.18
2019-06-26T19:18:56.287Z,26.09
2019-06-26T19:21:28.446Z,26.02
2019-06-26T19:24:09.616Z,26.05
2019-06-26T19:26:30.335Z,26.04
2019-06-26T19:29:01.674Z,26.05
2019-06-26T19:31:32.236Z,26.06
2019-06-26T19:34:02.489Z,26.07
2019-06-26T19:36:49.008Z,26.07
2019-06-26T19:39:07.555Z,25.97
2019-06-26T19:41:37.346Z,25.97
2019-06-26T19:44:11.200Z,25.89
2019-06-26T19:46:42.087Z,25.86
2019-06-26T19:49:15.138Z,25.82
2019-06-26T19:51:44.892Z,25.80
2019-06-26T19:54:27.168Z,25.75
2019-06-26T19:56:49.121Z,25.72
2019-06-26T19:59:19.382Z,25.69
2019-06-26T20:01:51.476Z,25.67
2019-06-26T20:04:21.627Z,25.63
2019-06-26T20:06:51.599Z,25.59
2019-06-26T20:09:22.268Z,25.54
2019-06-26T20:11:52.556Z,25.38
2019-06-26T20:14:23.707Z,25.34
2019-06-26T20:16:54.799Z,25.27
2019-06-26T20:19:24.463Z,25.23
2019-06-26T20:21:55.621Z,25.21
2019-06-26T20:24:25.870Z,25.14
2019-06-26T20:27:01.430Z,25.07
2019-06-26T20:29:32.739Z,25.02
2019-06-26T20:32:04.892Z,24.94
2019-06-26T20:34:34.801Z,24.88
2019-06-26T20:37:04.501Z,24.85
2019-06-26T20:39:34.734Z,24.83
2019-06-26T20:42:05.118Z,24.72
2019-06-26T20:44:38.952Z,24.65
2019-06-26T20:47:09.220Z,24.60
2019-06-26T20:49:52.791Z,24.51
2019-06-26T20:52:11.772Z,24.48
2019-06-26T20:54:42.048Z,24.43
2019-06-26T20:57:11.698Z,24.37
2019-06-26T20:59:41.912Z,24.34
2019-06-26T21:02:11.547Z,24.32
2019-06-26T21:04:43.178Z,24.27
2019-06-26T21:07:18.896Z,24.24
2019-06-26T21:09:48.606Z,24.05
2019-06-26T21:12:19.778Z,23.94
2019-06-26T21:14:51.007Z,23.92
2019-06-26T21:17:25.697Z,23.90
2019-06-26T21:19:55.179Z,23.87
2019-06-26T21:22:25.432Z,23.85
2019-06-26T21:24:55.164Z,23.78
2019-06-26T21:27:25.894Z,23.71
2019-06-26T21:29:59.190Z,23.63
2019-06-26T21:32:29.908Z,23.67
2019-06-26T21:34:59.788Z,23.66
2019-06-26T21:37:35.366Z,23.52
2019-06-26T21:40:05.337Z,23.46
2019-06-26T21:42:35.945Z,23.42
2019-06-26T21:45:06.475Z,23.35
2019-06-26T21:47:38.662Z,23.26
2019-06-26T21:50:11.292Z,23.22
2019-06-26T21:52:53.841Z,23.14
2019-06-26T21:55:34.408Z,23.08
2019-06-26T21:57:58.150Z,23.01
2019-06-26T22:00:29.973Z,22.95
2019-06-26T22:03:04.185Z,22.82
2019-06-26T22:05:34.009Z,22.73
2019-06-26T22:08:03.779Z,22.58
2019-06-26T22:10:33.497Z,22.56
2019-06-26T22:13:06.902Z,22.54
2019-06-26T22:15:36.594Z,22.50
2019-06-26T22:18:06.295Z,22.38
2019-06-26T22:20:36.888Z,22.37
2019-06-26T22:23:09.581Z,22.29
2019-06-26T22:25:50.247Z,22.26
2019-06-26T22:28:11.588Z,22.14
2019-06-26T22:30:41.622Z,22.04
2019-06-26T22:33:12.287Z,21.80
2019-06-26T22:35:43.593Z,21.81
2019-06-26T22:38:13.229Z,21.78
2019-06-26T22:40:46.327Z,21.72
2019-06-26T22:43:16.035Z,21.63
2019-06-26T22:45:46.687Z,21.52
2019-06-26T22:48:21.559Z,21.38
2019-06-26T22:50:52.109Z,21.24
2019-06-26T22:53:21.749Z,21.10
2019-06-26T22:56:06.694Z,20.77
2019-06-26T22:58:24.811Z,20.78
2019-06-26T23:01:12.476Z,20.71
2019-06-26T23:03:42.238Z,20.66
2019-06-26T23:06:11.874Z,20.42
2019-06-26T23:08:52.349Z,20.41
2019-06-26T23:11:21.974Z,20.43
2019-06-26T23:13:51.646Z,20.40
2019-06-26T23:16:23.327Z,20.33
2019-06-26T23:18:52.983Z,20.33
2019-06-26T23:21:24.650Z,20.20
2019-06-26T23:23:57.814Z,20.17
2019-06-26T23:26:29.523Z,19.91
2019-06-26T23:29:08.357Z,19.61
2019-06-26T23:31:38.094Z,19.60
2019-06-26T23:34:07.782Z,19.57
2019-06-26T23:36:37.465Z,19.59
2019-06-26T23:39:07.246Z,19.56
2019-06-26T23:41:37.248Z,19.51
2019-06-26T23:44:07.946Z,19.45
2019-06-26T23:46:37.624Z,19.43
2019-06-26T23:49:07.332Z,19.37
2019-06-26T23:51:36.985Z,19.22
2019-06-26T23:54:06.684Z,19.15
2019-06-26T23:56:42.466Z,19.07
2019-06-26T23:59:12.126Z,19.03
